Briefing drone pour Sassenage

Rechercher une autre localisation

Conditions de vol :


Nous sommes le : Lundi 28 septembre 2020
Il est 21:13 UTC (23:13 LT)

Lever de soleil : 05:05 UTC (07:05 LT)
Coucher de soleil : 17:50 UTC (19:50 LT)

Météo

L'essentiel des conditions de vol

VIGILANCE MÉTÉO FRANCE - Isère (38)
Pas de vigilances particulieres
METAR de LFLS
LFLS 282100Z AUTO 00000KT 8000 -RA FEW006 BKN011 OVC021 10/09 Q1020

Date d'émission: 28/09/2020
Heure d'émission: 21:00 UTC
Vent: Calme
Visibilité horizontale: 8000 m
Plafond :
- Peu de nuages à 600ft (183m)
- Nuages morcelés à 1100ft (335m)
- Couvert à 2100ft (640m)
Température: 10 °C
Point de rosée: 9 °C
Humidité: 94%
Pression (QNH): 1020 hPa
Conditions: Faible pluie
TAF de LFLS
LFLS 281913Z 2819/2915 CNL

Conditions prévues :

Heure d'émission : Bulletin éffectué le 28 à 19:00 UTC
Prévision : Valide du 28 a 19:00 UTC au 29 a 15:00 UTC
Nuages : à 0ft (0 m)
WEBCAM POUR SASSENAGE

Réglementation

Voler en sécurité

CARTES AERONAUTIQUE 1/500.000
CARTES VAC (LFLS)
SUP AIP




Chargement des AIP...
NOTAM (SASSENAGE + Terrain à proximité / FIR )




Chargement des NOTAMS...
CONTACT PREFECTURE 38


Avertissement : Les données mises à disposition sont indicatives. Oxygène Drone ne pourra être tenu responsable de dégâts causés aux biens et aux personnes.